sensor_id;sensor_type;location;lat;lon;timestamp;P1;durP1;ratioP1;P2;durP2;ratioP2
53927;SDS011;39837;47.630;18.822;2022-07-03T00:02:34;7.38;;;5.35;;
53927;SDS011;39837;47.630;18.822;2022-07-03T00:05:18;5.07;;;4.57;;
53927;SDS011;39837;47.630;18.822;2022-07-03T00:08:03;5.90;;;5.28;;
53927;SDS011;39837;47.630;18.822;2022-07-03T00:10:47;5.28;;;4.60;;
53927;SDS011;39837;47.630;18.822;2022-07-03T00:13:38;4.70;;;4.30;;
53927;SDS011;39837;47.630;18.822;2022-07-03T00:16:23;4.82;;;4.32;;
53927;SDS011;39837;47.630;18.822;2022-07-03T00:19:08;10.18;;;5.13;;
53927;SDS011;39837;47.630;18.822;2022-07-03T00:21:53;13.57;;;4.37;;
53927;SDS011;39837;47.630;18.822;2022-07-03T00:28:02;5.88;;;5.28;;
53927;SDS011;39837;47.630;18.822;2022-07-03T00:30:47;7.05;;;5.20;;
53927;SDS011;39837;47.630;18.822;2022-07-03T00:33:32;9.50;;;5.50;;
53927;SDS011;39837;47.630;18.822;2022-07-03T00:36:18;4.88;;;4.40;;
53927;SDS011;39837;47.630;18.822;2022-07-03T00:39:04;7.45;;;4.85;;
53927;SDS011;39837;47.630;18.822;2022-07-03T00:47:40;6.82;;;6.07;;
53927;SDS011;39837;47.630;18.822;2022-07-03T00:50:27;5.80;;;5.30;;
53927;SDS011;39837;47.630;18.822;2022-07-03T00:53:19;5.35;;;4.95;;
53927;SDS011;39837;47.630;18.822;2022-07-03T00:56:13;6.22;;;5.63;;
53927;SDS011;39837;47.630;18.822;2022-07-03T00:58:59;6.68;;;5.63;;
53927;SDS011;39837;47.630;18.822;2022-07-03T01:01:44;4.90;;;4.47;;
53927;SDS011;39837;47.630;18.822;2022-07-03T01:04:36;9.30;;;5.35;;
53927;SDS011;39837;47.630;18.822;2022-07-03T01:17:03;6.70;;;5.55;;
53927;SDS011;39837;47.630;18.822;2022-07-03T01:20:11;5.90;;;5.40;;
53927;SDS011;39837;47.630;18.822;2022-07-03T01:22:57;7.68;;;6.13;;
53927;SDS011;39837;47.630;18.822;2022-07-03T01:25:48;6.88;;;4.40;;
53927;SDS011;39837;47.630;18.822;2022-07-03T01:28:34;9.35;;;5.38;;
53927;SDS011;39837;47.630;18.822;2022-07-03T01:31:20;5.97;;;5.43;;
53927;SDS011;39837;47.630;18.822;2022-07-03T01:34:08;7.22;;;6.32;;
53927;SDS011;39837;47.630;18.822;2022-07-03T01:36:57;6.40;;;5.00;;
53927;SDS011;39837;47.630;18.822;2022-07-03T01:39:42;7.10;;;5.47;;
53927;SDS011;39837;47.630;18.822;2022-07-03T01:42:28;5.90;;;5.13;;
53927;SDS011;39837;47.630;18.822;2022-07-03T01:45:13;9.18;;;5.40;;
53927;SDS011;39837;47.630;18.822;2022-07-03T01:50:45;6.38;;;5.60;;
53927;SDS011;39837;47.630;18.822;2022-07-03T01:53:31;6.55;;;5.18;;
53927;SDS011;39837;47.630;18.822;2022-07-03T01:56:20;12.07;;;5.70;;
53927;SDS011;39837;47.630;18.822;2022-07-03T01:59:07;7.00;;;5.60;;
53927;SDS011;39837;47.630;18.822;2022-07-03T02:04:44;6.93;;;5.65;;
53927;SDS011;39837;47.630;18.822;2022-07-03T02:07:58;5.65;;;5.10;;
53927;SDS011;39837;47.630;18.822;2022-07-03T02:25:42;6.50;;;5.50;;
53927;SDS011;39837;47.630;18.822;2022-07-03T02:28:50;6.85;;;6.13;;
53927;SDS011;39837;47.630;18.822;2022-07-03T02:31:41;6.68;;;5.28;;
53927;SDS011;39837;47.630;18.822;2022-07-03T02:34:28;6.72;;;5.20;;
53927;SDS011;39837;47.630;18.822;2022-07-03T02:37:17;6.53;;;5.82;;
53927;SDS011;39837;47.630;18.822;2022-07-03T02:40:03;10.48;;;6.13;;
53927;SDS011;39837;47.630;18.822;2022-07-03T02:42:55;9.43;;;5.88;;
53927;SDS011;39837;47.630;18.822;2022-07-03T02:46:04;8.65;;;6.70;;
53927;SDS011;39837;47.630;18.822;2022-07-03T02:49:21;7.47;;;6.38;;
53927;SDS011;39837;47.630;18.822;2022-07-03T02:55:43;5.80;;;5.25;;
53927;SDS011;39837;47.630;18.822;2022-07-03T03:01:56;7.25;;;5.45;;
53927;SDS011;39837;47.630;18.822;2022-07-03T03:05:11;7.93;;;6.10;;
53927;SDS011;39837;47.630;18.822;2022-07-03T03:08:12;7.50;;;5.90;;
53927;SDS011;39837;47.630;18.822;2022-07-03T03:11:09;6.40;;;5.55;;
53927;SDS011;39837;47.630;18.822;2022-07-03T03:14:21;7.65;;;6.20;;
53927;SDS011;39837;47.630;18.822;2022-07-03T03:17:18;8.40;;;6.00;;
53927;SDS011;39837;47.630;18.822;2022-07-03T03:20:03;7.88;;;6.00;;
53927;SDS011;39837;47.630;18.822;2022-07-03T03:25:58;5.75;;;5.18;;
53927;SDS011;39837;47.630;18.822;2022-07-03T03:31:32;11.88;;;6.05;;
53927;SDS011;39837;47.630;18.822;2022-07-03T03:34:16;6.78;;;5.60;;
53927;SDS011;39837;47.630;18.822;2022-07-03T03:37:01;8.47;;;5.70;;
53927;SDS011;39837;47.630;18.822;2022-07-03T03:39:45;6.30;;;5.70;;
53927;SDS011;39837;47.630;18.822;2022-07-03T03:42:31;6.40;;;5.47;;
53927;SDS011;39837;47.630;18.822;2022-07-03T03:45:15;7.37;;;5.10;;
53927;SDS011;39837;47.630;18.822;2022-07-03T03:47:59;6.20;;;5.65;;
53927;SDS011;39837;47.630;18.822;2022-07-03T03:50:49;5.90;;;5.28;;
53927;SDS011;39837;47.630;18.822;2022-07-03T03:53:34;15.82;;;6.10;;
53927;SDS011;39837;47.630;18.822;2022-07-03T03:56:32;5.28;;;4.82;;
53927;SDS011;39837;47.630;18.822;2022-07-03T03:59:17;15.65;;;4.88;;
53927;SDS011;39837;47.630;18.822;2022-07-03T04:04:48;11.68;;;5.03;;
53927;SDS011;39837;47.630;18.822;2022-07-03T04:07:32;9.98;;;5.35;;
53927;SDS011;39837;47.630;18.822;2022-07-03T04:10:16;6.53;;;5.20;;
53927;SDS011;39837;47.630;18.822;2022-07-03T04:13:00;6.18;;;4.63;;
53927;SDS011;39837;47.630;18.822;2022-07-03T04:15:44;5.75;;;5.20;;
53927;SDS011;39837;47.630;18.822;2022-07-03T04:18:29;4.95;;;4.55;;
53927;SDS011;39837;47.630;18.822;2022-07-03T04:21:14;5.38;;;4.68;;
53927;SDS011;39837;47.630;18.822;2022-07-03T04:23:58;5.25;;;4.78;;
53927;SDS011;39837;47.630;18.822;2022-07-03T04:26:42;5.75;;;4.63;;
53927;SDS011;39837;47.630;18.822;2022-07-03T04:29:27;5.07;;;4.68;;
53927;SDS011;39837;47.630;18.822;2022-07-03T04:32:11;4.97;;;4.57;;
53927;SDS011;39837;47.630;18.822;2022-07-03T04:34:55;5.00;;;4.50;;
53927;SDS011;39837;47.630;18.822;2022-07-03T04:37:39;5.53;;;4.63;;
53927;SDS011;39837;47.630;18.822;2022-07-03T04:40:25;5.63;;;4.90;;
53927;SDS011;39837;47.630;18.822;2022-07-03T04:43:10;4.60;;;4.20;;
53927;SDS011;39837;47.630;18.822;2022-07-03T04:45:54;6.72;;;5.22;;
53927;SDS011;39837;47.630;18.822;2022-07-03T04:48:37;7.07;;;5.13;;
53927;SDS011;39837;47.630;18.822;2022-07-03T04:51:23;7.60;;;5.15;;
53927;SDS011;39837;47.630;18.822;2022-07-03T04:54:07;18.50;;;5.10;;
53927;SDS011;39837;47.630;18.822;2022-07-03T04:56:51;10.95;;;5.45;;
53927;SDS011;39837;47.630;18.822;2022-07-03T04:59:35;5.40;;;4.90;;
53927;SDS011;39837;47.630;18.822;2022-07-03T05:02:23;9.50;;;4.38;;
53927;SDS011;39837;47.630;18.822;2022-07-03T05:05:07;7.18;;;5.05;;
53927;SDS011;39837;47.630;18.822;2022-07-03T05:07:51;6.18;;;5.05;;
53927;SDS011;39837;47.630;18.822;2022-07-03T05:10:35;4.97;;;4.57;;
53927;SDS011;39837;47.630;18.822;2022-07-03T05:13:23;7.35;;;4.45;;
53927;SDS011;39837;47.630;18.822;2022-07-03T05:16:07;7.75;;;4.22;;
53927;SDS011;39837;47.630;18.822;2022-07-03T05:18:51;5.82;;;4.68;;
53927;SDS011;39837;47.630;18.822;2022-07-03T05:21:35;7.40;;;4.97;;
53927;SDS011;39837;47.630;18.822;2022-07-03T05:24:19;4.75;;;4.25;;
53927;SDS011;39837;47.630;18.822;2022-07-03T05:27:07;5.88;;;4.75;;
53927;SDS011;39837;47.630;18.822;2022-07-03T05:29:51;4.85;;;4.10;;
53927;SDS011;39837;47.630;18.822;2022-07-03T05:32:36;4.10;;;3.80;;
53927;SDS011;39837;47.630;18.822;2022-07-03T05:35:20;7.05;;;4.88;;
53927;SDS011;39837;47.630;18.822;2022-07-03T05:38:05;4.55;;;4.20;;
53927;SDS011;39837;47.630;18.822;2022-07-03T05:40:49;4.55;;;4.22;;
53927;SDS011;39837;47.630;18.822;2022-07-03T05:43:33;8.43;;;4.18;;
53927;SDS011;39837;47.630;18.822;2022-07-03T05:46:17;5.03;;;3.88;;
53927;SDS011;39837;47.630;18.822;2022-07-03T05:49:01;3.90;;;3.60;;
53927;SDS011;39837;47.630;18.822;2022-07-03T05:51:46;4.40;;;4.00;;
53927;SDS011;39837;47.630;18.822;2022-07-03T05:54:31;3.53;;;3.22;;
53927;SDS011;39837;47.630;18.822;2022-07-03T05:57:16;3.72;;;3.30;;
53927;SDS011;39837;47.630;18.822;2022-07-03T06:00:01;2.95;;;2.80;;
53927;SDS011;39837;47.630;18.822;2022-07-03T06:02:46;3.95;;;3.58;;
53927;SDS011;39837;47.630;18.822;2022-07-03T06:05:30;3.80;;;3.50;;
53927;SDS011;39837;47.630;18.822;2022-07-03T06:08:15;3.17;;;2.97;;
53927;SDS011;39837;47.630;18.822;2022-07-03T06:10:59;3.35;;;3.03;;
53927;SDS011;39837;47.630;18.822;2022-07-03T06:13:43;3.95;;;3.53;;
53927;SDS011;39837;47.630;18.822;2022-07-03T06:16:27;4.25;;;2.97;;
53927;SDS011;39837;47.630;18.822;2022-07-03T06:19:11;3.67;;;3.42;;
53927;SDS011;39837;47.630;18.822;2022-07-03T06:21:56;3.10;;;2.83;;
53927;SDS011;39837;47.630;18.822;2022-07-03T06:24:40;2.83;;;2.65;;
53927;SDS011;39837;47.630;18.822;2022-07-03T06:27:24;2.97;;;2.78;;
53927;SDS011;39837;47.630;18.822;2022-07-03T06:30:08;4.30;;;2.78;;
53927;SDS011;39837;47.630;18.822;2022-07-03T06:32:53;4.53;;;2.25;;
53927;SDS011;39837;47.630;18.822;2022-07-03T06:35:36;3.37;;;3.07;;
53927;SDS011;39837;47.630;18.822;2022-07-03T06:41:07;6.88;;;2.42;;
53927;SDS011;39837;47.630;18.822;2022-07-03T06:43:51;4.43;;;2.38;;
53927;SDS011;39837;47.630;18.822;2022-07-03T06:46:37;2.92;;;2.40;;
53927;SDS011;39837;47.630;18.822;2022-07-03T06:49:21;2.63;;;2.42;;
53927;SDS011;39837;47.630;18.822;2022-07-03T06:52:06;2.28;;;2.17;;
53927;SDS011;39837;47.630;18.822;2022-07-03T06:54:50;2.63;;;2.42;;
53927;SDS011;39837;47.630;18.822;2022-07-03T06:57:34;2.30;;;2.20;;
53927;SDS011;39837;47.630;18.822;2022-07-03T07:00:18;2.17;;;2.08;;
53927;SDS011;39837;47.630;18.822;2022-07-03T07:03:04;1.92;;;1.83;;
53927;SDS011;39837;47.630;18.822;2022-07-03T07:05:48;3.25;;;2.60;;
53927;SDS011;39837;47.630;18.822;2022-07-03T07:08:33;1.70;;;1.70;;
53927;SDS011;39837;47.630;18.822;2022-07-03T07:11:16;2.33;;;2.15;;
53927;SDS011;39837;47.630;18.822;2022-07-03T07:14:02;2.40;;;1.90;;
53927;SDS011;39837;47.630;18.822;2022-07-03T07:16:47;2.20;;;2.10;;
53927;SDS011;39837;47.630;18.822;2022-07-03T07:19:31;1.98;;;1.90;;
53927;SDS011;39837;47.630;18.822;2022-07-03T07:22:15;2.20;;;2.10;;
53927;SDS011;39837;47.630;18.822;2022-07-03T07:24:59;1.85;;;1.75;;
53927;SDS011;39837;47.630;18.822;2022-07-03T07:27:45;2.13;;;2.00;;
53927;SDS011;39837;47.630;18.822;2022-07-03T07:30:29;2.58;;;1.92;;
53927;SDS011;39837;47.630;18.822;2022-07-03T07:33:13;1.67;;;1.65;;
53927;SDS011;39837;47.630;18.822;2022-07-03T07:35:57;2.22;;;2.13;;
53927;SDS011;39837;47.630;18.822;2022-07-03T07:38:41;4.20;;;2.53;;
53927;SDS011;39837;47.630;18.822;2022-07-03T07:41:25;4.80;;;3.13;;
53927;SDS011;39837;47.630;18.822;2022-07-03T07:44:14;1.98;;;1.88;;
53927;SDS011;39837;47.630;18.822;2022-07-03T07:46:59;2.55;;;2.35;;
53927;SDS011;39837;47.630;18.822;2022-07-03T07:49:43;2.22;;;2.10;;
53927;SDS011;39837;47.630;18.822;2022-07-03T07:52:27;2.10;;;2.00;;
53927;SDS011;39837;47.630;18.822;2022-07-03T07:57:55;7.95;;;2.33;;
53927;SDS011;39837;47.630;18.822;2022-07-03T08:00:40;2.17;;;2.00;;
53927;SDS011;39837;47.630;18.822;2022-07-03T08:03:44;2.30;;;2.10;;
53927;SDS011;39837;47.630;18.822;2022-07-03T08:06:48;2.20;;;2.10;;
53927;SDS011;39837;47.630;18.822;2022-07-03T08:09:33;2.00;;;1.90;;
53927;SDS011;39837;47.630;18.822;2022-07-03T08:12:17;2.38;;;2.17;;
53927;SDS011;39837;47.630;18.822;2022-07-03T08:15:01;2.03;;;1.92;;
53927;SDS011;39837;47.630;18.822;2022-07-03T08:17:45;2.45;;;1.98;;
53927;SDS011;39837;47.630;18.822;2022-07-03T08:20:29;1.67;;;1.58;;
53927;SDS011;39837;47.630;18.822;2022-07-03T08:23:16;5.18;;;1.85;;
53927;SDS011;39837;47.630;18.822;2022-07-03T08:26:00;6.70;;;2.28;;
53927;SDS011;39837;47.630;18.822;2022-07-03T08:28:44;1.63;;;1.55;;
53927;SDS011;39837;47.630;18.822;2022-07-03T08:31:31;1.80;;;1.70;;
53927;SDS011;39837;47.630;18.822;2022-07-03T08:34:16;2.22;;;2.10;;
53927;SDS011;39837;47.630;18.822;2022-07-03T08:37:00;2.85;;;1.92;;
53927;SDS011;39837;47.630;18.822;2022-07-03T08:39:44;2.50;;;2.40;;
53927;SDS011;39837;47.630;18.822;2022-07-03T08:42:30;2.38;;;2.17;;
53927;SDS011;39837;47.630;18.822;2022-07-03T08:45:18;1.40;;;1.40;;
53927;SDS011;39837;47.630;18.822;2022-07-03T08:48:03;10.07;;;1.67;;
53927;SDS011;39837;47.630;18.822;2022-07-03T08:50:48;4.05;;;1.90;;
53927;SDS011;39837;47.630;18.822;2022-07-03T08:53:34;1.83;;;1.73;;
53927;SDS011;39837;47.630;18.822;2022-07-03T08:56:18;1.63;;;1.58;;
53927;SDS011;39837;47.630;18.822;2022-07-03T08:59:03;1.60;;;1.60;;
53927;SDS011;39837;47.630;18.822;2022-07-03T09:01:51;1.58;;;1.50;;
53927;SDS011;39837;47.630;18.822;2022-07-03T09:04:36;2.15;;;1.40;;
53927;SDS011;39837;47.630;18.822;2022-07-03T09:07:21;4.93;;;1.48;;
53927;SDS011;39837;47.630;18.822;2022-07-03T09:10:08;2.20;;;2.10;;
53927;SDS011;39837;47.630;18.822;2022-07-03T09:12:54;1.77;;;1.67;;
53927;SDS011;39837;47.630;18.822;2022-07-03T09:15:39;1.70;;;1.60;;
53927;SDS011;39837;47.630;18.822;2022-07-03T09:18:40;1.45;;;1.35;;
53927;SDS011;39837;47.630;18.822;2022-07-03T09:21:25;1.35;;;1.25;;
53927;SDS011;39837;47.630;18.822;2022-07-03T09:24:09;4.20;;;1.23;;
53927;SDS011;39837;47.630;18.822;2022-07-03T09:26:54;1.27;;;1.27;;
53927;SDS011;39837;47.630;18.822;2022-07-03T09:29:39;1.20;;;1.20;;
53927;SDS011;39837;47.630;18.822;2022-07-03T09:35:24;1.42;;;1.38;;
53927;SDS011;39837;47.630;18.822;2022-07-03T09:38:09;11.25;;;1.52;;
53927;SDS011;39837;47.630;18.822;2022-07-03T09:40:55;1.40;;;1.30;;
53927;SDS011;39837;47.630;18.822;2022-07-03T09:43:41;1.70;;;1.58;;
53927;SDS011;39837;47.630;18.822;2022-07-03T09:46:28;1.70;;;1.63;;
53927;SDS011;39837;47.630;18.822;2022-07-03T09:49:12;1.98;;;1.88;;
53927;SDS011;39837;47.630;18.822;2022-07-03T09:54:40;2.03;;;1.60;;
53927;SDS011;39837;47.630;18.822;2022-07-03T09:57:26;2.08;;;1.95;;
53927;SDS011;39837;47.630;18.822;2022-07-03T10:03:20;2.03;;;1.92;;
53927;SDS011;39837;47.630;18.822;2022-07-03T10:06:05;1.80;;;1.63;;
53927;SDS011;39837;47.630;18.822;2022-07-03T10:08:49;4.32;;;2.08;;
53927;SDS011;39837;47.630;18.822;2022-07-03T10:11:34;2.25;;;1.77;;
53927;SDS011;39837;47.630;18.822;2022-07-03T10:14:19;1.40;;;1.30;;
53927;SDS011;39837;47.630;18.822;2022-07-03T10:19:53;1.98;;;1.88;;
53927;SDS011;39837;47.630;18.822;2022-07-03T10:22:37;2.80;;;1.95;;
53927;SDS011;39837;47.630;18.822;2022-07-03T10:25:22;1.27;;;1.27;;
53927;SDS011;39837;47.630;18.822;2022-07-03T10:28:07;1.98;;;1.88;;
53927;SDS011;39837;47.630;18.822;2022-07-03T10:30:53;1.75;;;1.50;;
53927;SDS011;39837;47.630;18.822;2022-07-03T10:33:41;2.50;;;1.63;;
53927;SDS011;39837;47.630;18.822;2022-07-03T10:36:26;1.65;;;1.55;;
53927;SDS011;39837;47.630;18.822;2022-07-03T10:42:27;1.95;;;1.85;;
53927;SDS011;39837;47.630;18.822;2022-07-03T10:45:34;1.80;;;1.70;;
53927;SDS011;39837;47.630;18.822;2022-07-03T10:51:11;1.77;;;1.60;;
53927;SDS011;39837;47.630;18.822;2022-07-03T10:57:15;1.52;;;1.52;;
53927;SDS011;39837;47.630;18.822;2022-07-03T11:00:03;1.73;;;1.63;;
53927;SDS011;39837;47.630;18.822;2022-07-03T11:02:50;2.00;;;1.35;;
53927;SDS011;39837;47.630;18.822;2022-07-03T11:05:36;1.73;;;1.63;;
53927;SDS011;39837;47.630;18.822;2022-07-03T11:11:24;2.35;;;1.92;;
53927;SDS011;39837;47.630;18.822;2022-07-03T11:14:38;2.60;;;1.90;;
53927;SDS011;39837;47.630;18.822;2022-07-03T11:17:22;4.65;;;1.63;;
53927;SDS011;39837;47.630;18.822;2022-07-03T11:20:06;1.60;;;1.60;;
53927;SDS011;39837;47.630;18.822;2022-07-03T11:28:53;1.58;;;1.50;;
53927;SDS011;39837;47.630;18.822;2022-07-03T11:31:41;2.50;;;2.13;;
53927;SDS011;39837;47.630;18.822;2022-07-03T11:34:25;3.22;;;1.92;;
53927;SDS011;39837;47.630;18.822;2022-07-03T11:37:09;2.53;;;1.80;;
53927;SDS011;39837;47.630;18.822;2022-07-03T11:40:01;1.70;;;1.60;;
53927;SDS011;39837;47.630;18.822;2022-07-03T11:42:47;1.90;;;1.80;;
53927;SDS011;39837;47.630;18.822;2022-07-03T11:45:31;3.27;;;1.87;;
53927;SDS011;39837;47.630;18.822;2022-07-03T11:48:17;5.18;;;2.13;;
53927;SDS011;39837;47.630;18.822;2022-07-03T11:51:03;1.70;;;1.60;;
53927;SDS011;39837;47.630;18.822;2022-07-03T11:53:47;1.83;;;1.48;;
53927;SDS011;39837;47.630;18.822;2022-07-03T11:56:32;2.77;;;1.57;;
53927;SDS011;39837;47.630;18.822;2022-07-03T11:59:17;1.35;;;1.35;;
53927;SDS011;39837;47.630;18.822;2022-07-03T12:02:02;1.85;;;1.75;;
53927;SDS011;39837;47.630;18.822;2022-07-03T12:04:47;1.65;;;1.55;;
53927;SDS011;39837;47.630;18.822;2022-07-03T12:07:31;1.60;;;1.23;;
53927;SDS011;39837;47.630;18.822;2022-07-03T12:10:15;1.80;;;1.70;;
53927;SDS011;39837;47.630;18.822;2022-07-03T12:12:59;1.40;;;1.27;;
53927;SDS011;39837;47.630;18.822;2022-07-03T12:15:43;1.10;;;1.10;;
53927;SDS011;39837;47.630;18.822;2022-07-03T12:18:27;1.55;;;1.45;;
53927;SDS011;39837;47.630;18.822;2022-07-03T12:21:31;1.90;;;1.52;;
53927;SDS011;39837;47.630;18.822;2022-07-03T12:24:22;7.82;;;2.10;;
53927;SDS011;39837;47.630;18.822;2022-07-03T12:27:07;2.13;;;1.50;;
53927;SDS011;39837;47.630;18.822;2022-07-03T12:29:58;1.77;;;1.63;;
53927;SDS011;39837;47.630;18.822;2022-07-03T12:32:42;1.50;;;1.40;;
53927;SDS011;39837;47.630;18.822;2022-07-03T12:35:28;1.25;;;1.25;;
53927;SDS011;39837;47.630;18.822;2022-07-03T12:38:28;1.30;;;1.30;;
53927;SDS011;39837;47.630;18.822;2022-07-03T12:41:12;1.00;;;1.00;;
53927;SDS011;39837;47.630;18.822;2022-07-03T12:43:58;1.83;;;1.40;;
53927;SDS011;39837;47.630;18.822;2022-07-03T12:46:43;1.42;;;1.33;;
53927;SDS011;39837;47.630;18.822;2022-07-03T12:49:27;3.03;;;1.30;;
53927;SDS011;39837;47.630;18.822;2022-07-03T12:52:11;1.10;;;1.10;;
53927;SDS011;39837;47.630;18.822;2022-07-03T12:54:56;1.20;;;1.15;;
53927;SDS011;39837;47.630;18.822;2022-07-03T12:57:42;1.40;;;1.30;;
53927;SDS011;39837;47.630;18.822;2022-07-03T13:00:44;2.10;;;1.40;;
53927;SDS011;39837;47.630;18.822;2022-07-03T13:03:36;1.20;;;1.20;;
53927;SDS011;39837;47.630;18.822;2022-07-03T13:06:27;1.13;;;1.13;;
53927;SDS011;39837;47.630;18.822;2022-07-03T13:09:12;4.57;;;1.10;;
53927;SDS011;39837;47.630;18.822;2022-07-03T13:11:55;1.70;;;1.08;;
53927;SDS011;39837;47.630;18.822;2022-07-03T13:14:39;1.03;;;1.03;;
53927;SDS011;39837;47.630;18.822;2022-07-03T13:18:11;1.85;;;1.00;;
53927;SDS011;39837;47.630;18.822;2022-07-03T13:20:39;1.17;;;1.17;;
53927;SDS011;39837;47.630;18.822;2022-07-03T13:23:23;1.95;;;1.85;;
53927;SDS011;39837;47.630;18.822;2022-07-03T13:26:07;1.40;;;1.33;;
53927;SDS011;39837;47.630;18.822;2022-07-03T13:28:51;1.05;;;1.05;;
53927;SDS011;39837;47.630;18.822;2022-07-03T13:31:36;1.85;;;1.25;;
53927;SDS011;39837;47.630;18.822;2022-07-03T13:34:21;3.88;;;1.48;;
53927;SDS011;39837;47.630;18.822;2022-07-03T13:37:06;1.40;;;1.30;;
53927;SDS011;39837;47.630;18.822;2022-07-03T13:42:38;1.30;;;1.30;;
53927;SDS011;39837;47.630;18.822;2022-07-03T13:45:22;2.20;;;1.65;;
53927;SDS011;39837;47.630;18.822;2022-07-03T13:48:06;6.40;;;1.80;;
53927;SDS011;39837;47.630;18.822;2022-07-03T13:50:50;1.50;;;1.40;;
53927;SDS011;39837;47.630;18.822;2022-07-03T13:53:39;3.17;;;1.45;;
53927;SDS011;39837;47.630;18.822;2022-07-03T13:59:20;1.48;;;1.33;;
53927;SDS011;39837;47.630;18.822;2022-07-03T14:02:05;4.75;;;1.35;;
53927;SDS011;39837;47.630;18.822;2022-07-03T14:04:50;1.17;;;1.05;;
53927;SDS011;39837;47.630;18.822;2022-07-03T14:07:34;1.48;;;1.42;;
53927;SDS011;39837;47.630;18.822;2022-07-03T14:10:19;1.52;;;1.42;;
53927;SDS011;39837;47.630;18.822;2022-07-03T14:13:05;1.33;;;1.33;;
53927;SDS011;39837;47.630;18.822;2022-07-03T14:15:53;0.90;;;0.90;;
53927;SDS011;39837;47.630;18.822;2022-07-03T14:18:38;1.23;;;1.13;;
53927;SDS011;39837;47.630;18.822;2022-07-03T14:21:22;1.02;;;1.02;;
53927;SDS011;39837;47.630;18.822;2022-07-03T14:24:06;1.15;;;1.15;;
53927;SDS011;39837;47.630;18.822;2022-07-03T14:26:50;1.50;;;1.40;;
53927;SDS011;39837;47.630;18.822;2022-07-03T14:33:02;1.58;;;1.48;;
53927;SDS011;39837;47.630;18.822;2022-07-03T14:35:52;1.33;;;1.33;;
53927;SDS011;39837;47.630;18.822;2022-07-03T14:38:36;2.53;;;1.30;;
53927;SDS011;39837;47.630;18.822;2022-07-03T14:41:22;1.57;;;1.43;;
53927;SDS011;39837;47.630;18.822;2022-07-03T14:44:06;1.17;;;1.17;;
53927;SDS011;39837;47.630;18.822;2022-07-03T14:46:52;4.53;;;1.27;;
53927;SDS011;39837;47.630;18.822;2022-07-03T14:49:36;1.00;;;1.00;;
53927;SDS011;39837;47.630;18.822;2022-07-03T14:52:21;1.10;;;1.10;;
53927;SDS011;39837;47.630;18.822;2022-07-03T14:55:08;2.50;;;1.07;;
53927;SDS011;39837;47.630;18.822;2022-07-03T14:57:59;1.40;;;1.30;;
53927;SDS011;39837;47.630;18.822;2022-07-03T15:00:55;1.02;;;1.02;;
53927;SDS011;39837;47.630;18.822;2022-07-03T15:03:50;1.10;;;1.10;;
53927;SDS011;39837;47.630;18.822;2022-07-03T15:06:41;1.20;;;1.10;;
53927;SDS011;39837;47.630;18.822;2022-07-03T15:09:31;2.40;;;1.48;;
53927;SDS011;39837;47.630;18.822;2022-07-03T15:15:16;0.93;;;0.93;;
53927;SDS011;39837;47.630;18.822;2022-07-03T15:18:11;1.55;;;1.10;;
53927;SDS011;39837;47.630;18.822;2022-07-03T15:21:05;0.80;;;0.80;;
53927;SDS011;39837;47.630;18.822;2022-07-03T15:23:49;3.45;;;1.50;;
53927;SDS011;39837;47.630;18.822;2022-07-03T15:26:34;1.10;;;1.10;;
53927;SDS011;39837;47.630;18.822;2022-07-03T15:29:19;1.30;;;0.95;;
53927;SDS011;39837;47.630;18.822;2022-07-03T15:32:04;1.30;;;1.10;;
53927;SDS011;39837;47.630;18.822;2022-07-03T15:43:52;1.08;;;1.08;;
53927;SDS011;39837;47.630;18.822;2022-07-03T15:49:57;5.65;;;1.23;;
53927;SDS011;39837;47.630;18.822;2022-07-03T15:52:42;3.47;;;1.52;;
53927;SDS011;39837;47.630;18.822;2022-07-03T15:55:31;1.38;;;1.20;;
53927;SDS011;39837;47.630;18.822;2022-07-03T15:58:17;1.15;;;1.13;;
53927;SDS011;39837;47.630;18.822;2022-07-03T16:01:05;1.23;;;1.23;;
53927;SDS011;39837;47.630;18.822;2022-07-03T16:07:20;1.67;;;1.38;;
53927;SDS011;39837;47.630;18.822;2022-07-03T16:10:07;1.67;;;1.38;;
53927;SDS011;39837;47.630;18.822;2022-07-03T16:12:53;1.40;;;1.30;;
53927;SDS011;39837;47.630;18.822;2022-07-03T16:15:39;1.00;;;1.00;;
53927;SDS011;39837;47.630;18.822;2022-07-03T16:18:25;0.93;;;0.93;;
53927;SDS011;39837;47.630;18.822;2022-07-03T16:21:10;1.38;;;1.30;;
53927;SDS011;39837;47.630;18.822;2022-07-03T16:23:55;1.02;;;1.02;;
53927;SDS011;39837;47.630;18.822;2022-07-03T16:26:39;1.02;;;1.02;;
53927;SDS011;39837;47.630;18.822;2022-07-03T16:29:24;1.40;;;1.40;;
53927;SDS011;39837;47.630;18.822;2022-07-03T16:32:10;3.83;;;1.10;;
53927;SDS011;39837;47.630;18.822;2022-07-03T16:35:00;1.60;;;1.50;;
53927;SDS011;39837;47.630;18.822;2022-07-03T16:37:51;2.70;;;1.40;;
53927;SDS011;39837;47.630;18.822;2022-07-03T16:40:38;1.13;;;1.13;;
53927;SDS011;39837;47.630;18.822;2022-07-03T16:43:24;1.58;;;1.38;;
53927;SDS011;39837;47.630;18.822;2022-07-03T16:46:10;1.35;;;1.27;;
53927;SDS011;39837;47.630;18.822;2022-07-03T16:48:56;1.33;;;1.33;;
53927;SDS011;39837;47.630;18.822;2022-07-03T16:51:41;1.48;;;1.40;;
53927;SDS011;39837;47.630;18.822;2022-07-03T16:54:26;2.47;;;1.40;;
53927;SDS011;39837;47.630;18.822;2022-07-03T16:57:10;1.42;;;1.40;;
53927;SDS011;39837;47.630;18.822;2022-07-03T16:59:55;1.10;;;1.10;;
53927;SDS011;39837;47.630;18.822;2022-07-03T17:02:40;1.30;;;1.30;;
53927;SDS011;39837;47.630;18.822;2022-07-03T17:05:25;6.20;;;1.35;;
53927;SDS011;39837;47.630;18.822;2022-07-03T17:08:10;5.32;;;1.40;;
53927;SDS011;39837;47.630;18.822;2022-07-03T17:10:55;1.38;;;1.38;;
53927;SDS011;39837;47.630;18.822;2022-07-03T17:16:24;1.33;;;1.30;;
53927;SDS011;39837;47.630;18.822;2022-07-03T17:19:12;1.70;;;1.60;;
53927;SDS011;39837;47.630;18.822;2022-07-03T17:22:01;1.35;;;1.25;;
53927;SDS011;39837;47.630;18.822;2022-07-03T17:24:45;1.10;;;1.10;;
53927;SDS011;39837;47.630;18.822;2022-07-03T17:27:32;1.25;;;1.25;;
53927;SDS011;39837;47.630;18.822;2022-07-03T17:30:16;1.60;;;1.50;;
53927;SDS011;39837;47.630;18.822;2022-07-03T17:33:03;1.43;;;1.40;;
53927;SDS011;39837;47.630;18.822;2022-07-03T17:35:50;1.45;;;1.45;;
53927;SDS011;39837;47.630;18.822;2022-07-03T17:38:39;1.20;;;1.20;;
53927;SDS011;39837;47.630;18.822;2022-07-03T17:41:29;1.30;;;1.30;;
53927;SDS011;39837;47.630;18.822;2022-07-03T17:44:17;1.60;;;1.50;;
53927;SDS011;39837;47.630;18.822;2022-07-03T17:47:02;1.50;;;1.50;;
53927;SDS011;39837;47.630;18.822;2022-07-03T17:49:47;1.30;;;1.30;;
53927;SDS011;39837;47.630;18.822;2022-07-03T17:52:34;7.47;;;1.60;;
53927;SDS011;39837;47.630;18.822;2022-07-03T17:55:20;1.48;;;1.48;;
53927;SDS011;39837;47.630;18.822;2022-07-03T17:58:05;1.30;;;1.30;;
53927;SDS011;39837;47.630;18.822;2022-07-03T18:00:52;1.60;;;1.50;;
53927;SDS011;39837;47.630;18.822;2022-07-03T18:03:37;1.33;;;1.33;;
53927;SDS011;39837;47.630;18.822;2022-07-03T18:06:22;1.80;;;1.73;;
53927;SDS011;39837;47.630;18.822;2022-07-03T18:09:22;2.00;;;1.65;;
53927;SDS011;39837;47.630;18.822;2022-07-03T18:12:10;2.08;;;1.92;;
53927;SDS011;39837;47.630;18.822;2022-07-03T18:15:17;132.38;;;12.82;;
53927;SDS011;39837;47.630;18.822;2022-07-03T18:18:14;6.90;;;2.08;;
53927;SDS011;39837;47.630;18.822;2022-07-03T18:21:01;2.67;;;1.42;;
53927;SDS011;39837;47.630;18.822;2022-07-03T18:23:48;8.95;;;1.50;;
53927;SDS011;39837;47.630;18.822;2022-07-03T18:26:42;1.38;;;1.27;;
53927;SDS011;39837;47.630;18.822;2022-07-03T18:29:30;2.70;;;1.50;;
53927;SDS011;39837;47.630;18.822;2022-07-03T18:32:16;6.38;;;1.52;;